Georgi Petrov

Recruteur en chef - CSKA Sofia
20 Nov 2027
Samedi
Processus

Personnalité

Adaptabilité (11) Ambition (7) Controverse (11) Loyauté (2) Pression (15) Professionnalisme (13) Sportivité (10) Tempérament (20)

Profil

Style d'entraînement Démocratique
Diplôme Continental Pro
Détermination 5
Gestion des joueurs 12
Motivation 12
Discipline 4
Satisfaction professionnelle
100%
Fatigue
0%
Rôle Recruteur en chef
Salaire 55.1K p/s
Contrat 14.03.2029

Performance

Comportement Bon
Efficacité de l'entraînement
41%
Développement des joueurs
30%
Prévention des blessures
55%
Mise en place tactique
50%

Événements récents

A participé à une réunion de recrutement 7j
A participé à une réunion de recrutement 7j
A participé à une réunion de recrutement 14j
A participé à une réunion de recrutement 14j
A participé à une réunion de recrutement 21j
A participé à une réunion de recrutement 21j
A participé à une réunion de recrutement 28j
A participé à une réunion de recrutement 28j

Suivi en cours

130
Joueur Club Statut Capacité Confiance Observé Dernière observation Dernier vote
Borna Knezović Casarano Actif 99 / 114 40% 1 07.06.2027 -
Daniel Gnahoua ES Setif Actif 111 / 105 40% 1 07.06.2027 -
Samuel Kalu Botev Plovdiv Perdu 118 / 112 65% 1 02.06.2027 -
Ryan Leijten Lokomotiv Plovdiv Perdu 111 / 102 65% 1 01.06.2027 -
Gonçalo Oliveira Benfica Actif 116 / 114 40% 4 31.05.2027 -
Simone Kosijer Triestina Actif 101 / 113 40% 2 31.05.2027 -
Maeson King Blackpool Actif 115 / 123 40% 1 31.05.2027 -
Lucas Jetten Cambuur Actif 107 / 130 40% 3 29.05.2027 -
Mattia Puzone Siracusa Actif 98 / 114 40% 1 29.05.2027 -
Thiago Silvero Sevilla Actif 125 / 124 40% 1 28.05.2027 -
Samuel Lucero Defensa y Justicia Actif 108 / 131 40% 2 27.05.2027 -
T-Jay Parfitt Cardiff City Actif 89 / 100 40% 2 27.05.2027 -
Lucas Høgsberg Paris Saint-Germain Actif 132 / 141 40% 2 27.05.2027 -
Daniel Kelly Derby County Actif 108 / 112 40% 3 24.05.2027 -
Dylan Lawlor Cardiff City Actif 108 / 126 40% 3 24.05.2027 -
Karim Coulibaly RC Strasbourg Actif 123 / 138 40% 2 24.05.2027 -
Mohammed Wakaso Hasaacas Actif 88 / 93 40% 2 23.05.2027 -
Leandro Martins Benfica Actif 90 / 97 40% 3 23.05.2027 -
Mandla Mokotjo SuperSport United Actif 86 / 107 40% 1 23.05.2027 -
Pietro Reggiori Pro Patria Actif 89 / 98 40% 1 22.05.2027 -
Ronan Kpakio Brentford Actif 110 / 121 40% 1 22.05.2027 -
Jonathan De Irastorza Levante Actif 114 / 115 40% 3 20.05.2027 -
Mauricio Amaro Atlanta United FC Actif 126 / 139 40% 1 20.05.2027 -
Edmund Inusah WAFA Actif 81 / 87 40% 4 18.05.2027 -
Daniel Vernattus Metalist Actif 97 / 95 40% 1 18.05.2027 -
Jaydee Canvot Liverpool Actif 127 / 128 40% 1 17.05.2027 -
Lucas Mbamba Westerlo Actif 81 / 89 40% 1 17.05.2027 -
Christos Mouzakitis Hull City Actif 126 / 135 40% 2 15.05.2027 -
Abraham Paintsil Hasaacas Actif 96 / 92 40% 2 10.05.2027 -
Rhys Chadwick Gillingham Actif 98 / 104 40% 1 10.05.2027 -
Bakary Haïdara Hearts of Oak Actif 101 / 119 40% 2 07.05.2027 -
Kubrat Onasci Septemvri Actif 104 / 105 40% 5 06.05.2027 -
Jofre Torrents Ajax Actif 123 / 120 40% 4 06.05.2027 -
Gladson Sulemana Liberty Professionals Actif 90 / 104 40% 1 05.05.2027 -
Facundo Di Biasi Getafe Actif 116 / 116 40% 1 02.05.2027 -
Moncef Zekri Sporting CP Actif 94 / 107 40% 4 30.04.2027 -
David Ozoh Derby County Actif 122 / 118 40% 1 30.04.2027 -
Leonardo Mendicino Bari Actif 108 / 126 40% 1 28.04.2027 -
Andrey Ivlev Nizhniy Novgorod Actif 100 / 114 40% 1 26.04.2027 -
Joel McGregor Swindon Town Actif 87 / 104 40% 3 25.04.2027 -
Caleb Yirenkyi Coventry City Actif 128 / 140 40% 1 25.04.2027 -
Tommaso Cecotti Carpi Actif 95 / 107 40% 3 19.04.2027 -
Martim Cunha Porto Actif 101 / 97 40% 3 17.04.2027 -
Juan David Arizala Udinese Actif 117 / 118 40% 1 16.04.2027 -
Konta Ismaily Actif 86 / 82 40% 1 13.04.2027 -
Riquelme Thompson-Jones Shrewsbury Town Actif 105 / 122 40% 2 11.04.2027 -
Sascha Britschgi Catanzaro Actif 118 / 128 40% 2 10.04.2027 -
Surprise Manthosi Polokwane City Actif 100 / 106 40% 1 09.04.2027 -
Diego Rossi Forli Actif 87 / 85 40% 1 07.04.2027 -
Pablo Lúcio Farense Actif 96 / 116 40% 1 06.04.2027 -
Dayann Methalie Everton Actif 131 / 138 40% 1 14.01.2027 Plus d'infos
Simphiwe Selepe Orlando Pirates Actif 97 / 132 40% 1 14.01.2027 -
Tiago Freitas Benfica Actif 108 / 109 40% 1 31.12.2026 -
Andrey Domotsev Mashuk Actif 83 / 88 40% 1 30.12.2026 -
Tomasz Walczak MFK Michalovce Actif 101 / 97 40% 2 29.12.2026 -
Alpha Touré FC Metz Actif 120 / 129 40% 1 28.12.2026 -
Ilja Ivanov Rubin Actif 70 / 85 40% 1 28.12.2026 -
Gia Nadareishvili AS Trencin Actif 101 / 113 40% 1 28.12.2026 -
João Simões Sporting CP Actif 138 / 133 40% 2 27.12.2026 -
Timotej Hranica MSK Zilina Actif 103 / 109 40% 1 27.12.2026 -
Sergey Gribov Dinamo Bryansk Actif 92 / 76 40% 2 25.12.2026 -
Ognjen Bondžulić Mladost Lucani Actif 100 / 94 40% 3 24.12.2026 -
Yannik Wagner Heidenheim Actif 91 / 111 40% 1 23.12.2026 -
Marko Brkić NK Krka Actif 92 / 83 40% 1 23.12.2026 -
Jules Kalczynski Nimes Actif 90 / 87 40% 1 22.12.2026 -
Kyano Kwint De Graafschap Actif 90 / 89 40% 1 22.12.2026 -
Emin Madatov Ravan Actif 97 / 89 40% 2 21.12.2026 -
Kirill Cheburakov Rostov Actif 70 / 71 40% 2 21.12.2026 -
Sean Fusire Sheffield Wednesday Actif 98 / 97 40% 1 19.12.2026 -
Ismaël Baouf Cambuur Actif 107 / 122 40% 1 19.12.2026 -
Xavier Biscayzacú Sporting CP Actif 132 / 127 40% 1 15.12.2026 -
Rodrigo Ribeiro Werder Bremen Actif 129 / 130 40% 1 15.12.2026 -
Oumar Camara Vitoria Guimaraes Actif 121 / 126 40% 5 14.12.2026 -
Felipe Serrés Wanderers Actif 95 / 112 40% 1 13.12.2026 -
Braiden Graham Everton Actif 92 / 94 40% 1 13.12.2026 -
Dramane Kamagaté USM Alger Actif 98 / 92 40% 1 10.12.2026 -
Matheus Alves Zenit Actif 121 / 121 40% 1 10.12.2026 -
Kaloyan Strinski CSKA 1948 Actif 87 / 77 40% 1 09.12.2026 -
Philip Onyedika MFK Skalica Actif 84 / 102 40% 2 08.12.2026 -
Jeremiah Okine-Peters Textilschik Actif 82 / 76 40% 2 07.12.2026 -
Norbert Barczak Korona Actif 94 / 91 40% 1 07.12.2026 -
Nikolay Zlatev Cherno More Actif 97 / 113 40% 9 05.12.2026 -
Ryan Ogam Wolfsberger AC Actif 88 / 106 40% 1 05.12.2026 -
Nico Valentine Wycombe Wanderers Actif 77 / 84 40% 1 04.12.2026 -
Stanislav Lapinskiy Nizhniy Novgorod Actif 87 / 75 40% 1 02.12.2026 -
Toni Tamarit Alverca Actif 118 / 129 40% 1 27.11.2026 -
Roberto Iliev Slavia Sofia Actif 86 / 113 40% 4 26.11.2026 -
Miloš Jovičić Zabbar St. Patrick Actif 91 / 104 40% 3 26.11.2026 -
Prince Owusu AZAL Actif 74 / 112 40% 1 23.11.2026 -
Paris Brunner Monaco Actif 108 / 125 40% 1 20.11.2026 -
Artur Kozyrev Alania Actif 77 / 88 40% 1 19.11.2026 -
Risilanu Ismail El-Kanemi Warriors Actif 91 / 90 40% 1 18.11.2026 -
Levan Khozrevanidze Dinamo Batumi Actif 93 / 71 40% 1 15.11.2026 -
Hassan Beja AFC Leopards Actif 68 / 74 40% 1 15.11.2026 -
Ryan Oné Sheffield United Actif 114 / 107 40% 1 13.11.2026 -
Hílder Arboleda Union Magdalena Actif 80 / 94 40% 1 12.11.2026 -
Néiser Villarreal Cruzeiro Actif 98 / 100 40% 1 09.11.2026 -
Mathis Jangeal Famalicao Actif 103 / 110 40% 1 27.10.2026 -
Alan Salas San Lorenzo Actif 82 / 97 40% 1 26.10.2026 -
Don-Pedro Samuel Bayelsa United Actif 87 / 85 40% 2 22.10.2026 -
Santiago Uriza Vélez Actif 82 / 94 40% 1 19.10.2026 -
Daniel Cummings West Ham United Actif 94 / 84 40% 1 18.10.2026 -
Timofey Simanenka Gomel Actif 98 / 108 40% 1 11.10.2026 -
Tosin Olawale El-Kanemi Warriors Actif 88 / 80 40% 1 10.10.2026 -
Ignacio Campo Huracán Actif 109 / 117 40% 1 07.10.2026 -
Víctor Reyes Deportes Tolima Actif 82 / 88 40% 1 06.10.2026 -
Luka Andrade Montevideo City Torque Actif 93 / 117 40% 1 02.10.2026 -
Lautaro Cipollone Defensores Unidos Actif 76 / 90 40% 1 01.10.2026 -
Alexis Devesa Aldosivi Actif 86 / 83 40% 1 30.09.2026 -
Tomás Salteño Rosario Central Actif 83 / 102 40% 1 29.09.2026 -
Laureano Paez Colón Actif 100 / 88 40% 1 28.09.2026 -
Chimezie Williams Botev Plovdiv Actif 85 / 98 40% 1 27.09.2026 -
Thiago Ponce Rosario Central Actif 93 / 93 40% 1 25.09.2026 -
Bautista La Licata Belgrano Actif 97 / 97 40% 1 24.09.2026 -
Leonel Flores Boca Juniors Actif 103 / 115 40% 2 23.09.2026 -
Chizzy Ezenwata Chelsea Actif 91 / 102 40% 1 22.09.2026 -
Jonathan Cook Leicester City Actif 86 / 90 40% 1 21.09.2026 -
Alexei Dominguez Pachuca Actif 108 / 104 40% 1 20.09.2026 -
Aaron Centurión Vélez Actif 93 / 101 40% 1 20.09.2026 -
Lautaro Díaz San Martín Actif 84 / 98 40% 2 18.09.2026 -
Ceadach O'Neill Arsenal Actif 81 / 96 40% 1 16.09.2026 -
Igor Tyjon Blackburn Rovers Actif 102 / 101 40% 1 14.09.2026 -
Kaique Kenji Cruzeiro Actif 108 / 126 40% 1 14.09.2026 -
Ignacio Gonella Central Espanol Actif 80 / 80 40% 1 11.09.2026 -
Santino Dudar Ferro Carril Oeste Actif 77 / 95 40% 1 10.09.2026 -
Joseph Abah Remo Stars Actif 90 / 101 40% 1 09.09.2026 -
Louis Zecevic-John Arsenal Actif 89 / 103 40% 1 08.09.2026 -
Lucciano Reinoso Caracas Actif 93 / 92 40% 1 07.09.2026 -
Filip Gigov Ludogorets Actif 81 / 91 40% 1 06.09.2026 -
Vakhtang Salia Newcastle United Actif 93 / 101 40% 1 03.09.2026 -